createdAt,value
2022-11-10T00:02:21.651Z,4144.8
2022-11-10T00:07:57.814Z,4146.8
2022-11-10T00:13:32.895Z,4144.8
2022-11-10T00:19:07.789Z,4146.6
2022-11-10T00:24:43.624Z,4142.8
2022-11-10T00:30:18.898Z,4145.3
2022-11-10T00:35:53.887Z,4144
2022-11-10T00:41:28.731Z,4142.3
2022-11-10T00:47:25.471Z,4138.3
2022-11-10T00:53:07.930Z,4142.4
2022-11-10T00:58:43.837Z,4142.3
2022-11-10T01:04:18.707Z,4141.1
2022-11-10T01:09:53.922Z,4143.6
2022-11-10T01:15:29.402Z,4143.6
2022-11-10T01:21:05.820Z,4141.4
2022-11-10T01:26:40.532Z,4141.4
2022-11-10T01:32:15.666Z,4143.8
2022-11-10T01:37:50.655Z,4143.8
2022-11-10T01:43:26.010Z,4140.8
2022-11-10T01:49:22.644Z,4139.8
2022-11-10T01:54:55.199Z,4142.1
2022-11-10T02:00:31.220Z,4134.6
2022-11-10T02:06:06.482Z,4140.3
2022-11-10T02:11:41.390Z,4137.8
2022-11-10T02:17:16.314Z,4138.6
2022-11-10T02:22:51.249Z,4136.1
2022-11-10T02:28:26.299Z,4138.3
2022-11-10T02:34:01.307Z,4137.6
2022-11-10T02:39:36.316Z,4139.3
2022-11-10T02:45:11.428Z,4138.6
2022-11-10T02:50:46.205Z,4135.7
2022-11-10T02:56:21.232Z,4140.1
2022-11-10T03:01:57.165Z,4138.8
2022-11-10T03:07:32.976Z,4138.3
2022-11-10T03:13:07.789Z,4136.9
2022-11-10T03:18:43.542Z,4139.8
2022-11-10T03:24:18.626Z,4137.2
2022-11-10T03:29:53.347Z,4134.6
2022-11-10T03:35:28.397Z,4135.2
2022-11-10T03:41:22.069Z,4134.7
2022-11-10T03:47:18.931Z,4129.7
2022-11-10T03:52:51.734Z,4135.6
2022-11-10T03:58:27.807Z,4131.9
2022-11-10T04:04:02.536Z,4132.6
2022-11-10T04:09:38.386Z,4134.2
2022-11-10T04:15:13.588Z,4130.7
2022-11-10T04:20:52.293Z,4130.9
2022-11-10T04:26:27.449Z,4130.7
2022-11-10T04:32:02.633Z,4130.6
2022-11-10T04:37:37.620Z,4127
2022-11-10T04:43:21.631Z,4130.2
2022-11-10T04:49:18.879Z,4124.9
2022-11-10T04:54:51.384Z,4129.7
2022-11-10T05:00:28.261Z,4130.5
2022-11-10T05:06:03.557Z,4128
2022-11-10T05:11:39.305Z,4127.7
2022-11-10T05:17:15.333Z,4127.4
2022-11-10T05:22:51.775Z,4125.2
2022-11-10T05:28:26.757Z,4126
2022-11-10T05:34:01.672Z,4124.5
2022-11-10T05:39:36.526Z,4126.2
2022-11-10T05:45:11.398Z,4128.7
2022-11-10T05:50:46.448Z,4123.5
2022-11-10T05:56:21.264Z,4123.2
2022-11-10T06:01:56.092Z,4119.3
2022-11-10T06:07:31.002Z,4121.8
2022-11-10T06:13:07.030Z,4125.7
2022-11-10T06:18:41.788Z,4121.5
2022-11-10T06:24:16.679Z,4120.3
2022-11-10T06:29:52.461Z,4123.2
2022-11-10T06:35:28.635Z,4122.5
2022-11-10T06:41:03.573Z,4120.7
2022-11-10T06:47:00.680Z,4117.3
2022-11-10T06:52:33.338Z,4119.2
2022-11-10T06:58:08.419Z,4119.8
2022-11-10T07:04:22.081Z,4118.5
2022-11-10T07:09:56.935Z,4116.5
2022-11-10T07:15:32.211Z,4121
2022-11-10T07:21:08.466Z,4130
2022-11-10T07:26:44.130Z,4135.2
2022-11-10T07:32:19.106Z,4131.7
2022-11-10T07:37:54.267Z,4128.7
2022-11-10T07:43:29.391Z,4137.4
2022-11-10T07:49:25.835Z,4133.9
2022-11-10T07:54:58.966Z,4175.4
2022-11-10T08:00:34.108Z,4192.5
2022-11-10T08:06:11.688Z,4210.4
2022-11-10T08:11:46.606Z,4191.7
2022-11-10T08:17:29.302Z,4207.4
2022-11-10T08:23:10.864Z,4205.8
2022-11-10T08:28:47.441Z,4200.7
2022-11-10T08:34:22.340Z,4177.1
2022-11-10T08:39:57.185Z,4192.2
2022-11-10T08:45:33.243Z,4210.4
2022-11-10T08:51:14.351Z,4186
2022-11-10T08:56:55.488Z,4194.2
2022-11-10T09:02:32.741Z,4177.6
2022-11-10T09:08:07.947Z,4197.2
2022-11-10T09:13:42.878Z,4191.9
2022-11-10T09:19:21.667Z,4211.8
2022-11-10T09:24:56.772Z,4208.6
2022-11-10T09:30:31.831Z,4191.2
2022-11-10T09:36:07.686Z,4206.1
2022-11-10T09:41:42.578Z,4209.1
2022-11-10T09:48:00.341Z,4189.2
2022-11-10T09:53:33.425Z,4192
2022-11-10T09:59:08.153Z,4203.6
2022-11-10T10:04:53.353Z,4208.9
2022-11-10T10:10:28.429Z,4200.2
2022-11-10T10:16:03.205Z,4217.1
2022-11-10T10:21:38.274Z,4214.3
2022-11-10T10:27:14.471Z,4195.2
2022-11-10T10:32:49.294Z,4197.7
2022-11-10T10:38:26.372Z,4203.6
2022-11-10T10:44:02.323Z,4202.6
2022-11-10T10:49:38.460Z,4200.4
2022-11-10T10:55:14.414Z,4212.5
2022-11-10T11:00:49.391Z,4216.8
2022-11-10T11:06:24.479Z,4218.7
2022-11-10T11:12:00.318Z,4207.3
2022-11-10T11:17:36.394Z,4204.8
2022-11-10T11:23:11.558Z,4200.4
2022-11-10T11:28:47.710Z,4197.7
2022-11-10T11:34:22.583Z,4197
2022-11-10T11:39:58.542Z,4200.7
2022-11-10T11:45:37.853Z,4204.4
2022-11-10T11:51:13.640Z,4214.8
2022-11-10T11:56:48.757Z,4211.6
2022-11-10T12:02:24.379Z,4208.4
2022-11-10T12:08:00.391Z,4217.6
2022-11-10T12:13:36.263Z,4224.2
2022-11-10T12:19:11.455Z,4217
2022-11-10T12:24:46.424Z,4204.3
2022-11-10T12:30:22.367Z,4214.1
2022-11-10T12:35:57.324Z,4217.6
2022-11-10T12:41:33.284Z,4214
2022-11-10T12:47:08.127Z,4218.2
2022-11-10T12:52:43.631Z,4221.7
2022-11-10T12:58:22.503Z,4228
2022-11-10T13:03:57.839Z,4206.4
2022-11-10T13:09:42.404Z,4211.6
2022-11-10T13:15:27.318Z,4222.7
2022-11-10T13:21:02.707Z,4210.6
2022-11-10T13:26:37.709Z,4210.3
2022-11-10T13:32:18.084Z,4222
2022-11-10T13:38:03.863Z,4214.3
2022-11-10T13:43:41.153Z,4219.2
2022-11-10T13:49:37.985Z,4220.8
2022-11-10T13:55:17.527Z,4223.2
2022-11-10T14:00:53.106Z,4225.7
2022-11-10T14:06:28.528Z,4226.9
2022-11-10T14:12:04.804Z,4223.3
2022-11-10T14:17:39.679Z,4220.2
2022-11-10T14:23:15.693Z,4221.7
2022-11-10T14:28:50.638Z,4218
2022-11-10T14:34:27.471Z,4220.2
2022-11-10T14:40:03.021Z,4220
2022-11-10T14:45:38.024Z,4217.6
2022-11-10T14:51:17.517Z,4206.8
2022-11-10T14:56:52.799Z,4202.4
2022-11-10T15:02:28.512Z,4202.9
2022-11-10T15:08:04.275Z,4199.4
2022-11-10T15:13:39.520Z,4198.1
2022-11-10T15:19:15.596Z,4198.2
2022-11-10T15:24:51.315Z,4197.4
2022-11-10T15:30:26.548Z,4198.9
2022-11-10T15:36:01.681Z,4194.4
2022-11-10T15:41:37.686Z,4193.4
2022-11-10T15:47:12.928Z,4193.9
2022-11-10T15:52:48.844Z,4190.7
2022-11-10T15:58:27.133Z,4190.9
2022-11-10T16:04:03.029Z,4192
2022-11-10T16:09:37.782Z,4192.4
2022-11-10T16:15:13.015Z,4188
2022-11-10T16:20:48.205Z,4189.5
2022-11-10T16:26:24.452Z,4186.5
2022-11-10T16:32:00.376Z,4190.9
2022-11-10T16:37:37.062Z,4187
2022-11-10T16:43:12.098Z,4184.7
2022-11-10T16:48:47.904Z,4185.7
2022-11-10T16:54:23.460Z,4182.3
2022-11-10T16:59:58.402Z,4186
2022-11-10T17:05:33.722Z,4184.1
2022-11-10T17:11:09.256Z,4181.1
2022-11-10T17:16:44.144Z,4184.1
2022-11-10T17:22:20.303Z,4184
2022-11-10T17:27:55.670Z,4179
2022-11-10T17:33:31.330Z,4177.8
2022-11-10T17:39:08.086Z,4182
2022-11-10T17:44:43.592Z,4180.1
2022-11-10T17:50:18.515Z,4178.3
2022-11-10T17:55:54.331Z,4176.8
2022-11-10T18:01:30.693Z,4178.8
2022-11-10T18:07:06.966Z,4177.1
2022-11-10T18:12:42.389Z,4177.3
2022-11-10T18:18:18.242Z,4179.8
2022-11-10T18:23:53.102Z,4179.1
2022-11-10T18:29:28.490Z,4177.3
2022-11-10T18:35:03.726Z,4178.6
2022-11-10T18:40:38.829Z,4175.1
2022-11-10T18:46:22.580Z,4180.5
2022-11-10T18:52:19.019Z,4175.3
2022-11-10T18:57:55.324Z,4175.6
2022-11-10T19:03:31.095Z,4174.4
2022-11-10T19:09:07.562Z,4177.5
2022-11-10T19:14:42.253Z,4175.1
2022-11-10T19:20:18.726Z,4178.1
2022-11-10T19:25:54.270Z,4175.1
2022-11-10T19:31:29.117Z,4174.9
2022-11-10T19:37:04.518Z,4176.1
2022-11-10T19:42:40.064Z,4175.4
2022-11-10T19:48:15.084Z,4174.8
2022-11-10T19:53:50.469Z,4172.8
2022-11-10T19:59:26.165Z,4172.4
2022-11-10T20:05:01.241Z,4172.6
2022-11-10T20:10:37.041Z,4174.8
2022-11-10T20:16:13.788Z,4169.2
2022-11-10T20:21:50.208Z,4173.1
2022-11-10T20:27:26.204Z,4173.4
2022-11-10T20:33:01.877Z,4170.7
2022-11-10T20:38:38.824Z,4171.9
2022-11-10T20:44:16.571Z,4169.9
2022-11-10T20:49:52.129Z,4169.9
2022-11-10T20:55:55.324Z,4171.6
2022-11-10T21:01:33.768Z,4169.1
2022-11-10T21:07:11.153Z,4167.9
2022-11-10T21:12:49.826Z,4169.7
2022-11-10T21:18:26.251Z,4168.9
2022-11-10T21:24:02.431Z,4168.1
2022-11-10T21:29:38.988Z,4168.7
2022-11-10T21:35:15.717Z,4166.6
2022-11-10T21:40:52.816Z,4166.4
2022-11-10T21:46:50.593Z,4162.2
2022-11-10T21:52:25.271Z,4169.1
2022-11-10T21:58:01.434Z,4165.9
2022-11-10T22:03:36.812Z,4161.5
2022-11-10T22:09:13.507Z,4166.6
2022-11-10T22:14:49.063Z,4164
2022-11-10T22:20:23.747Z,4163.4
2022-11-10T22:25:59.356Z,4163.7
2022-11-10T22:31:35.155Z,4160
2022-11-10T22:37:10.247Z,4160
2022-11-10T22:42:45.701Z,4159.9
2022-11-10T22:48:43.098Z,4155.8
2022-11-10T22:54:16.839Z,4159
2022-11-10T22:59:52.086Z,4155.2
2022-11-10T23:05:27.627Z,4158.9
2022-11-10T23:11:03.327Z,4159.7
2022-11-10T23:16:38.799Z,4157.2
2022-11-10T23:22:15.258Z,4155
2022-11-10T23:27:50.551Z,4159.4
2022-11-10T23:33:36.216Z,4155.8
2022-11-10T23:39:11.494Z,4157.5
2022-11-10T23:44:46.521Z,4155.3
2022-11-10T23:50:23.265Z,4155.7
2022-11-10T23:55:58.529Z,4158.2
